createdAt,value
2018-03-15T00:02:25.580Z,93.70
2018-03-15T00:04:53.097Z,98.00
2018-03-15T00:07:21.397Z,96.13
2018-03-15T00:09:48.981Z,94.57
2018-03-15T00:12:16.491Z,94.07
2018-03-15T00:14:44.000Z,90.67
2018-03-15T00:17:11.519Z,91.23
2018-03-15T00:19:39.048Z,88.93
2018-03-15T00:22:06.611Z,87.93
2018-03-15T00:24:34.122Z,88.17
2018-03-15T00:27:02.389Z,93.50
2018-03-15T00:29:30.021Z,92.37
2018-03-15T00:31:57.526Z,94.37
2018-03-15T00:34:25.806Z,96.20
2018-03-15T00:36:54.098Z,91.13
2018-03-15T00:39:22.377Z,94.17
2018-03-15T00:41:50.761Z,93.97
2018-03-15T00:44:19.032Z,94.40
2018-03-15T00:46:47.344Z,92.47
2018-03-15T00:49:14.958Z,93.30
2018-03-15T00:51:42.470Z,96.60
2018-03-15T00:54:09.985Z,93.83
2018-03-15T00:56:37.565Z,90.67
2018-03-15T00:59:05.838Z,92.47
2018-03-15T01:01:33.348Z,90.57
2018-03-15T01:04:00.855Z,85.70
2018-03-15T01:06:28.386Z,84.50
2018-03-15T01:08:55.938Z,81.10
2018-03-15T01:11:23.444Z,78.23
2018-03-15T01:13:50.958Z,65.07
2018-03-15T01:16:18.728Z,70.23
2018-03-15T01:18:46.253Z,67.63
2018-03-15T01:21:14.533Z,69.80
2018-03-15T01:23:42.174Z,67.10
2018-03-15T01:26:09.681Z,64.77
2018-03-15T01:28:37.974Z,60.50
2018-03-15T01:31:05.512Z,60.07
2018-03-15T01:33:33.780Z,61.83
2018-03-15T01:36:01.299Z,61.20
2018-03-15T01:38:28.929Z,65.43
2018-03-15T01:40:57.195Z,71.27
2018-03-15T01:43:24.705Z,79.47
2018-03-15T01:45:52.235Z,80.33
2018-03-15T01:48:20.504Z,77.00
2018-03-15T01:50:48.017Z,78.10
2018-03-15T01:53:15.565Z,76.70
2018-03-15T01:55:43.060Z,77.27
2018-03-15T01:58:10.577Z,77.20
2018-03-15T02:00:38.126Z,76.10
2018-03-15T02:03:06.400Z,75.47
2018-03-15T02:05:34.785Z,74.13
2018-03-15T02:08:03.051Z,73.90
2018-03-15T02:10:30.555Z,69.17
2018-03-15T02:12:58.198Z,72.97
2018-03-15T02:15:26.472Z,87.00
2018-03-15T02:17:54.786Z,85.70
2018-03-15T02:20:22.311Z,89.23
2018-03-15T02:22:49.826Z,87.83
2018-03-15T02:25:17.333Z,87.13
2018-03-15T02:27:44.838Z,86.17
2018-03-15T02:30:12.361Z,85.27
2018-03-15T02:32:39.875Z,80.77
2018-03-15T02:35:07.385Z,84.30
2018-03-15T02:37:35.010Z,84.10
2018-03-15T02:40:02.523Z,83.57
2018-03-15T02:42:30.802Z,81.13
2018-03-15T02:44:59.106Z,82.67
2018-03-15T02:47:26.619Z,79.53
2018-03-15T02:49:54.122Z,81.47
2018-03-15T02:52:22.412Z,74.93
2018-03-15T02:54:49.920Z,71.73
2018-03-15T02:57:18.194Z,74.07
2018-03-15T02:59:45.831Z,74.57
2018-03-15T03:02:13.373Z,73.90
2018-03-15T03:04:41.649Z,75.93
2018-03-15T03:07:09.930Z,73.70
2018-03-15T03:09:38.206Z,73.57
2018-03-15T03:12:06.499Z,72.10
2018-03-15T03:14:34.024Z,71.57
2018-03-15T03:17:01.569Z,74.17
2018-03-15T03:19:29.168Z,72.73
2018-03-15T03:21:56.695Z,71.10
2018-03-15T03:24:24.217Z,69.30
2018-03-15T03:26:52.794Z,72.10
2018-03-15T03:29:21.073Z,72.00
2018-03-15T03:31:49.357Z,72.13
2018-03-15T03:34:17.666Z,75.33
2018-03-15T03:36:45.171Z,76.63
2018-03-15T03:39:12.720Z,71.67
2018-03-15T03:41:40.233Z,71.33
2018-03-15T03:44:08.535Z,69.47
2018-03-15T03:46:36.065Z,66.23
2018-03-15T03:49:03.568Z,68.97
2018-03-15T03:51:31.073Z,59.60
2018-03-15T03:53:58.605Z,54.53
2018-03-15T03:56:26.117Z,56.40
2018-03-15T03:58:54.382Z,52.87
2018-03-15T04:01:21.995Z,53.83
2018-03-15T04:03:49.503Z,52.67
2018-03-15T04:06:17.041Z,51.73
2018-03-15T04:08:44.563Z,49.63
2018-03-15T04:11:12.842Z,47.00
2018-03-15T04:13:41.117Z,46.03
2018-03-15T04:16:08.651Z,45.90
2018-03-15T04:18:36.192Z,38.87
2018-03-15T04:21:03.720Z,34.83
2018-03-15T04:23:31.995Z,33.37
2018-03-15T04:26:00.296Z,35.33
2018-03-15T04:28:27.817Z,34.93
2018-03-15T04:30:55.424Z,36.40
2018-03-15T04:33:22.973Z,35.47
2018-03-15T04:35:51.259Z,34.33
2018-03-15T04:38:18.756Z,34.60
2018-03-15T04:40:46.252Z,34.93
2018-03-15T04:43:13.762Z,34.43
2018-03-15T04:45:41.385Z,32.90
2018-03-15T04:48:08.888Z,31.87
2018-03-15T04:50:36.394Z,31.90
2018-03-15T04:53:04.014Z,32.00
2018-03-15T04:55:31.516Z,34.00
2018-03-15T04:57:59.020Z,34.53
2018-03-15T05:00:27.458Z,33.27
2018-03-15T05:02:54.966Z,34.33
2018-03-15T05:05:23.231Z,35.13
2018-03-15T05:07:50.784Z,36.90
2018-03-15T05:10:18.292Z,34.70
2018-03-15T05:12:45.807Z,36.90
2018-03-15T05:15:13.351Z,36.83
2018-03-15T05:17:40.870Z,36.07
2018-03-15T05:20:08.386Z,34.90
2018-03-15T05:22:36.019Z,37.33
2018-03-15T05:25:03.541Z,37.73
2018-03-15T05:27:31.822Z,35.87
2018-03-15T05:30:00.093Z,36.40
2018-03-15T05:32:27.598Z,35.40
2018-03-15T05:34:55.243Z,35.93
2018-03-15T05:37:23.506Z,34.77
2018-03-15T05:39:51.918Z,34.50
2018-03-15T05:42:19.444Z,35.63
2018-03-15T05:44:46.980Z,36.67
2018-03-15T05:47:14.625Z,34.90
2018-03-15T05:49:42.120Z,34.27
2018-03-15T05:52:09.635Z,35.97
2018-03-15T05:54:37.161Z,35.90
2018-03-15T05:57:04.669Z,38.47
2018-03-15T05:59:32.172Z,37.87
2018-03-15T06:01:59.681Z,40.13
2018-03-15T06:04:27.952Z,39.57
2018-03-15T06:06:56.372Z,39.70
2018-03-15T06:09:23.914Z,40.33
2018-03-15T06:11:51.450Z,39.20
2018-03-15T06:14:19.102Z,42.10
2018-03-15T06:16:46.664Z,40.37
2018-03-15T06:19:14.193Z,40.80
2018-03-15T06:21:41.752Z,40.60
2018-03-15T06:24:09.307Z,40.73
2018-03-15T06:26:36.891Z,39.73
2018-03-15T06:29:04.424Z,38.47
2018-03-15T06:31:31.991Z,38.83
2018-03-15T06:33:59.562Z,38.53
2018-03-15T06:36:27.074Z,39.33
2018-03-15T06:38:54.588Z,39.30
2018-03-15T06:41:22.225Z,38.47
2018-03-15T06:43:50.519Z,39.67
2018-03-15T06:46:18.921Z,39.53
2018-03-15T06:48:46.439Z,41.17
2018-03-15T06:51:13.961Z,42.07
2018-03-15T06:53:41.632Z,45.37
2018-03-15T06:56:09.123Z,43.37
2018-03-15T06:58:36.739Z,44.53
2018-03-15T07:01:04.265Z,42.27
2018-03-15T07:03:31.826Z,44.50
2018-03-15T07:05:59.393Z,42.67
2018-03-15T07:08:26.903Z,44.30
2018-03-15T07:10:54.441Z,43.23
2018-03-15T07:13:21.949Z,43.47
2018-03-15T07:15:49.459Z,44.03
2018-03-15T07:18:17.752Z,41.90
2018-03-15T07:20:45.260Z,43.43
2018-03-15T07:23:12.778Z,42.63
2018-03-15T07:25:40.302Z,44.33
2018-03-15T07:28:07.810Z,43.97
2018-03-15T07:30:35.314Z,43.20
2018-03-15T07:33:02.841Z,40.13
2018-03-15T07:35:30.430Z,37.63
2018-03-15T07:37:57.946Z,36.57
2018-03-15T07:40:26.278Z,37.63
2018-03-15T07:42:53.793Z,35.10
2018-03-15T07:45:22.068Z,39.23
2018-03-15T07:47:50.372Z,39.90
2018-03-15T07:50:17.904Z,39.67
2018-03-15T07:52:45.422Z,38.13
2018-03-15T07:55:12.989Z,42.00
2018-03-15T07:57:40.513Z,41.20
2018-03-15T08:00:08.803Z,42.27
2018-03-15T08:02:36.344Z,39.00
2018-03-15T08:05:04.622Z,40.17
2018-03-15T08:07:33.032Z,41.20
2018-03-15T08:10:00.547Z,40.93
2018-03-15T08:12:28.090Z,42.43
2018-03-15T08:14:55.741Z,45.73
2018-03-15T08:17:23.277Z,40.70
2018-03-15T08:19:50.799Z,41.00
2018-03-15T08:22:18.460Z,42.03
2018-03-15T08:24:45.989Z,40.87
2018-03-15T08:27:13.516Z,39.17
2018-03-15T08:29:41.813Z,37.87
2018-03-15T08:32:10.204Z,41.90
2018-03-15T08:34:37.774Z,40.87
2018-03-15T08:37:05.288Z,36.87
2018-03-15T08:39:32.803Z,34.53
2018-03-15T08:42:00.366Z,34.37
2018-03-15T08:44:27.902Z,34.17
2018-03-15T08:46:56.178Z,34.97
2018-03-15T08:49:24.482Z,32.70
2018-03-15T08:51:51.992Z,36.50
2018-03-15T08:54:19.499Z,32.23
2018-03-15T08:56:47.818Z,28.80
2018-03-15T08:59:15.324Z,32.67
2018-03-15T09:01:42.839Z,30.17
2018-03-15T09:04:10.388Z,29.53
2018-03-15T09:06:37.908Z,35.17
2018-03-15T09:09:05.432Z,31.97
2018-03-15T09:11:32.976Z,30.07
2018-03-15T09:14:00.506Z,29.33
2018-03-15T09:16:28.830Z,30.37
2018-03-15T09:18:56.524Z,23.90
2018-03-15T09:21:24.054Z,25.50
2018-03-15T09:23:51.588Z,24.53
2018-03-15T09:26:19.965Z,26.30
2018-03-15T09:28:48.263Z,21.20
2018-03-15T09:31:16.543Z,20.10
2018-03-15T09:33:44.101Z,18.37
2018-03-15T09:36:11.639Z,17.83
2018-03-15T09:38:39.929Z,14.50
2018-03-15T09:41:08.249Z,14.00
2018-03-15T09:43:35.788Z,15.23
2018-03-15T09:46:03.341Z,15.50
2018-03-15T09:48:31.861Z,15.67
2018-03-15T09:50:59.385Z,20.00
2018-03-15T09:53:27.677Z,20.07
2018-03-15T09:55:55.978Z,17.97
2018-03-15T09:58:23.519Z,17.00
2018-03-15T10:00:51.052Z,17.83
2018-03-15T10:03:18.625Z,16.63
2018-03-15T10:05:46.203Z,14.63
2018-03-15T10:08:13.694Z,14.60
2018-03-15T10:10:41.262Z,13.37
2018-03-15T10:13:08.793Z,12.97
2018-03-15T10:15:37.077Z,13.13
2018-03-15T10:18:05.381Z,12.43
2018-03-15T10:20:32.904Z,12.53
2018-03-15T10:23:00.473Z,12.33
2018-03-15T10:25:28.786Z,11.37
2018-03-15T10:27:56.304Z,12.20
2018-03-15T10:30:23.856Z,12.50
2018-03-15T10:32:57.069Z,12.83
2018-03-15T10:35:28.228Z,12.93
2018-03-15T10:37:56.566Z,11.87
2018-03-15T10:40:24.077Z,12.77
2018-03-15T10:42:52.496Z,10.47
2018-03-15T10:45:20.024Z,9.93
2018-03-15T10:47:48.312Z,10.03
2018-03-15T10:50:15.968Z,10.20
2018-03-15T10:52:44.254Z,9.30
2018-03-15T10:55:12.558Z,9.40
2018-03-15T10:57:40.078Z,8.30
2018-03-15T11:00:07.613Z,7.83
2018-03-15T11:02:40.832Z,6.87
2018-03-15T11:05:14.061Z,7.03
2018-03-15T11:07:41.624Z,7.33
2018-03-15T11:10:09.156Z,7.23
2018-03-15T11:12:36.685Z,7.43
2018-03-15T11:15:04.214Z,8.60
2018-03-15T11:17:31.769Z,6.53
2018-03-15T11:19:59.413Z,6.47
2018-03-15T11:22:27.710Z,4.83
2018-03-15T11:24:56.013Z,5.97
2018-03-15T11:27:23.544Z,6.67
2018-03-15T11:29:51.843Z,6.87
2018-03-15T11:32:20.153Z,7.97
2018-03-15T11:34:47.697Z,8.00
2018-03-15T11:37:15.247Z,8.20
2018-03-15T11:39:42.906Z,9.10
2018-03-15T11:42:11.265Z,9.67
2018-03-15T11:44:39.627Z,9.17
2018-03-15T11:47:07.178Z,9.20
2018-03-15T11:49:34.701Z,10.63
2018-03-15T11:52:02.283Z,10.90
2018-03-15T11:54:29.862Z,10.67
2018-03-15T11:56:57.418Z,8.40
2018-03-15T11:59:25.136Z,10.20
2018-03-15T12:01:52.703Z,10.47
2018-03-15T12:04:20.240Z,10.63
2018-03-15T12:06:47.794Z,11.93
2018-03-15T12:09:15.348Z,10.97
2018-03-15T12:11:42.917Z,9.33
2018-03-15T12:14:10.525Z,13.27
2018-03-15T12:16:38.873Z,12.00
2018-03-15T12:19:06.424Z,13.30
2018-03-15T12:21:33.988Z,13.03
2018-03-15T12:24:01.526Z,12.97
2018-03-15T12:26:29.874Z,12.00
2018-03-15T12:28:57.487Z,11.17
2018-03-15T12:31:24.998Z,10.63
2018-03-15T12:33:52.538Z,10.93
2018-03-15T12:36:20.128Z,11.53
2018-03-15T12:38:47.665Z,11.10
2018-03-15T12:41:15.294Z,10.50
2018-03-15T12:43:43.583Z,10.43
2018-03-15T12:46:11.896Z,10.53
2018-03-15T12:48:39.448Z,11.00
2018-03-15T12:51:06.985Z,10.63
2018-03-15T12:53:35.305Z,11.23
2018-03-15T12:56:02.834Z,11.07
2018-03-15T12:58:31.113Z,12.60
2018-03-15T13:00:59.405Z,11.77
2018-03-15T13:03:26.930Z,11.17
2018-03-15T13:05:54.487Z,11.80
2018-03-15T13:08:22.123Z,12.23
2018-03-15T13:10:49.720Z,14.13
2018-03-15T13:13:17.298Z,12.40
2018-03-15T13:15:45.622Z,12.30
2018-03-15T13:18:13.188Z,13.13
2018-03-15T13:20:40.876Z,13.40
2018-03-15T13:23:08.430Z,12.23
2018-03-15T13:25:36.080Z,14.40
2018-03-15T13:28:03.730Z,14.83
2018-03-15T13:30:31.276Z,13.53
2018-03-15T13:32:58.894Z,13.53
2018-03-15T13:35:26.538Z,12.20
2018-03-15T13:37:54.073Z,14.50
2018-03-15T13:40:22.385Z,13.93
2018-03-15T13:42:49.946Z,14.80
2018-03-15T13:45:17.478Z,13.90
2018-03-15T13:47:45.761Z,14.43
2018-03-15T13:50:14.080Z,14.67
2018-03-15T13:52:41.622Z,14.70
2018-03-15T13:55:09.157Z,15.53
2018-03-15T13:57:36.673Z,14.07
2018-03-15T14:00:04.204Z,13.70
2018-03-15T14:02:32.531Z,13.77
2018-03-15T14:05:00.049Z,13.10
2018-03-15T14:07:28.346Z,13.57
2018-03-15T14:09:55.993Z,13.97
2018-03-15T14:12:24.293Z,13.37
2018-03-15T14:14:51.828Z,13.37
2018-03-15T14:17:20.233Z,13.60
2018-03-15T14:19:47.752Z,13.33
2018-03-15T14:22:15.261Z,13.93
2018-03-15T14:24:42.784Z,13.33
2018-03-15T14:27:10.307Z,13.30
2018-03-15T14:29:37.900Z,14.00
2018-03-15T14:32:05.385Z,14.73
2018-03-15T14:34:32.906Z,13.93
2018-03-15T14:37:00.469Z,12.03
2018-03-15T14:39:28.035Z,11.33
2018-03-15T14:41:55.567Z,12.57
2018-03-15T14:44:23.132Z,11.53
2018-03-15T14:46:50.669Z,11.73
2018-03-15T14:49:18.984Z,11.70
2018-03-15T14:51:46.597Z,12.07
2018-03-15T14:54:14.283Z,18.67
2018-03-15T14:56:42.854Z,12.90
2018-03-15T14:59:10.424Z,12.57
2018-03-15T15:01:38.080Z,11.53
2018-03-15T15:04:05.659Z,10.90
2018-03-15T15:06:33.983Z,11.07
2018-03-15T15:09:01.523Z,12.23
2018-03-15T15:11:29.854Z,12.33
2018-03-15T15:13:57.377Z,14.23
2018-03-15T15:16:24.912Z,16.60
2018-03-15T15:18:52.510Z,18.17
2018-03-15T15:21:20.077Z,14.60
2018-03-15T15:23:47.678Z,12.73
2018-03-15T15:26:15.174Z,12.13
2018-03-15T15:28:42.736Z,11.33
2018-03-15T15:31:11.051Z,12.43
2018-03-15T15:33:38.580Z,13.13
2018-03-15T15:36:06.141Z,13.50
2018-03-15T15:38:33.717Z,13.73
2018-03-15T15:41:02.046Z,12.67
2018-03-15T15:43:29.568Z,14.10
2018-03-15T15:45:57.944Z,14.17
2018-03-15T15:48:26.286Z,14.97
2018-03-15T15:50:53.912Z,14.57
2018-03-15T15:53:21.696Z,14.60
2018-03-15T15:55:49.278Z,13.50
2018-03-15T15:58:16.804Z,12.80
2018-03-15T16:00:45.124Z,13.83
2018-03-15T16:03:12.655Z,14.43
2018-03-15T16:05:40.327Z,15.13
2018-03-15T16:08:07.911Z,15.03
2018-03-15T16:10:35.516Z,15.23
2018-03-15T16:13:03.087Z,14.77
2018-03-15T16:15:30.629Z,16.17
2018-03-15T16:17:58.174Z,18.40
2018-03-15T16:20:26.042Z,18.50
2018-03-15T16:22:53.561Z,14.47
2018-03-15T16:25:21.933Z,14.57
2018-03-15T16:27:50.318Z,17.53
2018-03-15T16:30:18.626Z,40.83
2018-03-15T16:32:46.412Z,93.97
2018-03-15T16:35:13.939Z,18.57
2018-03-15T16:37:41.691Z,18.13
2018-03-15T16:40:10.162Z,18.87
2018-03-15T16:42:37.698Z,19.07
2018-03-15T16:45:05.311Z,19.70
2018-03-15T16:47:33.745Z,20.20
2018-03-15T16:50:01.329Z,20.50
2018-03-15T16:52:28.900Z,20.80
2018-03-15T16:54:56.554Z,21.90
2018-03-15T16:57:24.096Z,23.10
2018-03-15T16:59:51.681Z,23.37
2018-03-15T17:02:19.343Z,23.97
2018-03-15T17:04:47.704Z,24.33
2018-03-15T17:07:15.261Z,22.50
2018-03-15T17:09:42.916Z,27.33
2018-03-15T17:12:10.471Z,27.30
2018-03-15T17:14:38.874Z,27.90
2018-03-15T17:17:06.556Z,29.00
2018-03-15T17:19:34.070Z,26.43
2018-03-15T17:22:01.585Z,24.10
2018-03-15T17:24:29.132Z,25.10
2018-03-15T17:26:56.696Z,25.43
2018-03-15T17:29:24.259Z,27.63
2018-03-15T17:31:51.890Z,24.17
2018-03-15T17:34:20.203Z,23.70
2018-03-15T17:36:47.725Z,31.13
2018-03-15T17:39:15.270Z,23.93
2018-03-15T17:41:42.789Z,23.37
2018-03-15T17:44:10.306Z,25.23
2018-03-15T17:46:37.954Z,25.97
2018-03-15T17:49:05.508Z,25.67
2018-03-15T17:51:33.081Z,25.07
2018-03-15T17:54:00.601Z,25.00
2018-03-15T17:56:28.906Z,28.17
2018-03-15T17:58:56.676Z,30.57
2018-03-15T18:01:24.232Z,31.20
2018-03-15T18:03:51.766Z,33.70
2018-03-15T18:06:20.086Z,33.57
2018-03-15T18:08:47.618Z,33.27
2018-03-15T18:11:15.893Z,33.93
2018-03-15T18:13:44.220Z,35.00
2018-03-15T18:16:11.765Z,34.87
2018-03-15T18:18:39.353Z,34.87
2018-03-15T18:21:07.072Z,34.93
2018-03-15T18:23:35.353Z,34.07
2018-03-15T18:26:03.684Z,31.37
2018-03-15T18:28:31.216Z,32.60
2018-03-15T18:30:58.756Z,32.80
2018-03-15T18:33:27.070Z,33.40
2018-03-15T18:35:54.784Z,32.90
2018-03-15T18:38:22.361Z,33.70
2018-03-15T18:40:49.898Z,35.27
2018-03-15T18:43:17.499Z,36.30
2018-03-15T18:45:45.823Z,34.63
2018-03-15T18:48:13.355Z,35.23
2018-03-15T18:50:41.735Z,38.47
2018-03-15T18:53:10.124Z,39.33
2018-03-15T18:55:38.436Z,40.33
2018-03-15T18:58:06.021Z,40.47
2018-03-15T19:00:33.712Z,40.27
2018-03-15T19:03:01.281Z,39.20
2018-03-15T19:05:28.810Z,41.00
2018-03-15T19:07:56.451Z,40.90
2018-03-15T19:10:24.059Z,37.33
2018-03-15T19:12:51.767Z,37.03
2018-03-15T19:15:19.611Z,36.00
2018-03-15T19:17:47.939Z,37.63
2018-03-15T19:20:15.681Z,35.43
2018-03-15T19:22:44.001Z,36.13
2018-03-15T19:25:11.612Z,36.37
2018-03-15T19:27:39.983Z,36.73
2018-03-15T19:30:07.720Z,38.10
2018-03-15T19:32:35.417Z,36.40
2018-03-15T19:35:03.180Z,37.47
2018-03-15T19:37:30.739Z,40.13
2018-03-15T19:39:58.310Z,38.87
2018-03-15T19:42:25.868Z,39.13
2018-03-15T19:44:53.457Z,40.60
2018-03-15T19:47:21.774Z,41.33
2018-03-15T19:49:49.327Z,41.23
2018-03-15T19:52:16.853Z,40.57
2018-03-15T19:54:44.383Z,43.37
2018-03-15T19:57:12.047Z,43.73
2018-03-15T19:59:39.590Z,42.87
2018-03-15T20:02:07.119Z,43.83
2018-03-15T20:04:35.459Z,45.37
2018-03-15T20:07:04.013Z,44.13
2018-03-15T20:09:31.544Z,45.27
2018-03-15T20:11:59.956Z,45.30
2018-03-15T20:14:27.490Z,44.87
2018-03-15T20:16:55.042Z,45.53
2018-03-15T20:19:22.623Z,46.50
2018-03-15T20:21:50.176Z,46.53
2018-03-15T20:24:23.329Z,44.30
2018-03-15T20:26:50.918Z,46.27
2018-03-15T20:29:18.453Z,46.70
2018-03-15T20:31:45.978Z,48.07
2018-03-15T20:34:14.362Z,50.07
2018-03-15T20:36:42.686Z,49.60
2018-03-15T20:39:15.803Z,49.77
2018-03-15T20:41:43.351Z,46.13
2018-03-15T20:44:10.873Z,48.17
2018-03-15T20:46:44.162Z,46.03
2018-03-15T20:49:14.422Z,43.90
2018-03-15T20:51:42.075Z,45.20
2018-03-15T20:54:09.638Z,44.73
2018-03-15T20:56:37.211Z,42.37
2018-03-15T20:59:04.986Z,43.43
2018-03-15T21:01:32.612Z,43.90
2018-03-15T21:04:00.900Z,44.27
2018-03-15T21:06:28.457Z,43.50
2018-03-15T21:08:56.766Z,44.57
2018-03-15T21:13:58.250Z,44.03
2018-03-15T21:16:25.946Z,42.80
2018-03-15T21:18:53.607Z,44.93
2018-03-15T21:21:21.134Z,46.20
2018-03-15T21:23:48.666Z,44.73
2018-03-15T21:26:17.154Z,45.10
2018-03-15T21:28:45.457Z,45.00
2018-03-15T21:31:13.013Z,48.47
2018-03-15T21:33:40.605Z,47.83
2018-03-15T21:36:08.210Z,45.90
2018-03-15T21:38:35.799Z,45.60
2018-03-15T21:41:04.189Z,45.33
2018-03-15T21:43:31.706Z,45.57
2018-03-15T21:45:59.215Z,44.37
2018-03-15T21:48:26.859Z,45.53
2018-03-15T21:50:54.395Z,43.43
2018-03-15T21:53:21.952Z,42.57
2018-03-15T21:55:49.502Z,41.90
2018-03-15T21:58:17.011Z,40.30
2018-03-15T22:00:45.368Z,43.10
2018-03-15T22:03:12.881Z,43.10
2018-03-15T22:05:40.437Z,41.07
2018-03-15T22:08:08.789Z,41.47
2018-03-15T22:10:36.317Z,42.33
2018-03-15T22:13:03.965Z,42.33
2018-03-15T22:15:31.481Z,41.43
2018-03-15T22:17:59.019Z,43.33
2018-03-15T22:20:26.569Z,40.30
2018-03-15T22:22:54.069Z,41.23
2018-03-15T22:25:21.595Z,41.17
2018-03-15T22:27:49.237Z,41.47
2018-03-15T22:30:16.780Z,42.03
2018-03-15T22:32:45.059Z,41.27
2018-03-15T22:35:13.479Z,41.77
2018-03-15T22:37:41.050Z,44.40
2018-03-15T22:40:09.285Z,42.87
2018-03-15T22:42:37.616Z,45.47
2018-03-15T22:45:05.140Z,45.70
2018-03-15T22:47:33.426Z,46.60
2018-03-15T22:50:01.718Z,43.70
2018-03-15T22:52:29.237Z,44.93
2018-03-15T22:54:56.740Z,46.30
2018-03-15T22:57:24.269Z,45.90
2018-03-15T22:59:51.781Z,46.40
2018-03-15T23:02:19.286Z,43.57
2018-03-15T23:04:46.821Z,44.97
2018-03-15T23:07:14.341Z,46.03
2018-03-15T23:09:42.618Z,45.17
2018-03-15T23:12:10.940Z,45.60
2018-03-15T23:14:38.449Z,45.77
2018-03-15T23:17:05.975Z,46.67
2018-03-15T23:19:33.572Z,45.53
2018-03-15T23:22:01.124Z,44.33
2018-03-15T23:24:28.677Z,44.07
2018-03-15T23:26:56.197Z,43.40
2018-03-15T23:29:23.700Z,46.10
2018-03-15T23:31:51.217Z,46.30
2018-03-15T23:34:19.510Z,45.10
2018-03-15T23:36:47.187Z,45.73
2018-03-15T23:39:14.699Z,45.17
2018-03-15T23:41:42.220Z,45.47
2018-03-15T23:44:09.773Z,46.73
2018-03-15T23:46:37.316Z,48.03
2018-03-15T23:49:05.607Z,47.20
2018-03-15T23:51:33.138Z,47.67
2018-03-15T23:54:01.429Z,51.23
2018-03-15T23:56:29.709Z,47.53
2018-03-15T23:58:58.005Z,50.70
